createdAt,value
2022-08-17T00:00:42.779Z,23.04
2022-08-17T00:03:50.205Z,23.05
2022-08-17T00:06:54.038Z,22.95
2022-08-17T00:09:59.465Z,22.67
2022-08-17T00:13:07.473Z,22.62
2022-08-17T00:16:15.098Z,22.83
2022-08-17T00:19:22.980Z,22.95
2022-08-17T00:22:34.061Z,22.75
2022-08-17T00:25:42.041Z,22.68
2022-08-17T00:28:46.274Z,22.50
2022-08-17T00:33:12.041Z,22.56
2022-08-17T00:35:27.901Z,22.51
2022-08-17T00:38:32.088Z,22.71
2022-08-17T00:41:42.230Z,22.79
2022-08-17T00:44:47.226Z,22.50
2022-08-17T00:47:51.316Z,22.47
2022-08-17T00:51:00.272Z,22.53
2022-08-17T00:54:08.982Z,22.44
2022-08-17T00:57:18.735Z,21.97
2022-08-17T01:00:27.115Z,21.88
2022-08-17T01:03:31.704Z,21.72
2022-08-17T01:06:36.201Z,21.71
2022-08-17T01:09:41.075Z,21.46
2022-08-17T01:12:49.889Z,21.59
2022-08-17T01:15:58.552Z,21.61
2022-08-17T01:19:05.574Z,21.45
2022-08-17T01:22:18.823Z,21.87
2022-08-17T01:25:23.444Z,21.92
2022-08-17T01:28:40.721Z,21.51
2022-08-17T01:31:58.129Z,21.38
2022-08-17T01:35:01.902Z,21.32
2022-08-17T01:38:09.617Z,21.57
2022-08-17T01:41:17.073Z,21.67
2022-08-17T01:44:23.192Z,21.59
2022-08-17T01:47:27.630Z,21.75
2022-08-17T01:50:38.029Z,21.86
2022-08-17T01:53:47.369Z,21.77
2022-08-17T01:56:52.956Z,21.85
2022-08-17T01:59:56.765Z,21.83
2022-08-17T02:03:00.750Z,21.38
2022-08-17T02:06:05.990Z,21.23
2022-08-17T02:09:31.517Z,21.58
2022-08-17T02:12:39.862Z,21.45
2022-08-17T02:15:44.223Z,21.34
2022-08-17T02:18:48.206Z,21.01
2022-08-17T02:21:54.433Z,21.01
2022-08-17T02:25:02.395Z,20.61
2022-08-17T02:28:07.194Z,20.33
2022-08-17T02:31:12.508Z,20.74
2022-08-17T02:34:16.645Z,20.72
2022-08-17T02:37:20.303Z,20.89
2022-08-17T02:40:36.381Z,20.84
2022-08-17T02:43:40.549Z,20.83
2022-08-17T02:46:44.453Z,20.84
2022-08-17T02:49:54.143Z,21.00
2022-08-17T02:53:02.268Z,21.08
2022-08-17T02:56:08.431Z,21.10
2022-08-17T02:59:12.384Z,20.99
2022-08-17T03:02:16.045Z,20.92
2022-08-17T03:05:24.674Z,20.82
2022-08-17T03:08:29.049Z,20.95
2022-08-17T03:11:34.381Z,20.76
2022-08-17T03:14:41.460Z,21.00
2022-08-17T03:17:46.370Z,20.88
2022-08-17T03:20:50.502Z,20.83
2022-08-17T03:23:54.713Z,20.84
2022-08-17T03:26:59.792Z,20.65
2022-08-17T03:30:04.187Z,20.77
2022-08-17T03:33:10.207Z,20.85
2022-08-17T03:36:14.352Z,20.93
2022-08-17T03:39:17.976Z,20.98
2022-08-17T03:42:31.283Z,20.74
2022-08-17T03:45:54.412Z,20.45
2022-08-17T03:49:16.257Z,20.51
2022-08-17T03:52:37.217Z,20.43
2022-08-17T03:55:58.886Z,20.41
2022-08-17T03:59:03.901Z,20.50
2022-08-17T04:02:12.593Z,20.26
2022-08-17T04:05:16.366Z,20.07
2022-08-17T04:08:21.118Z,19.91
2022-08-17T04:11:24.704Z,20.14
2022-08-17T04:14:33.793Z,20.35
2022-08-17T04:17:37.367Z,20.50
2022-08-17T04:20:41.521Z,20.35
2022-08-17T04:23:45.414Z,20.21
2022-08-17T04:26:52.645Z,19.65
2022-08-17T04:29:59.962Z,19.81
2022-08-17T04:33:08.804Z,19.97
2022-08-17T04:36:15.555Z,19.96
2022-08-17T04:39:19.487Z,20.21
2022-08-17T04:42:22.055Z,20.61
2022-08-17T04:45:27.427Z,20.96
2022-08-17T04:48:38.097Z,21.30
2022-08-17T04:51:51.030Z,21.58
2022-08-17T04:54:59.947Z,21.84
2022-08-17T04:58:03.996Z,22.10
2022-08-17T05:01:09.349Z,22.22
2022-08-17T05:04:33.506Z,22.77
2022-08-17T05:07:39.039Z,23.29
2022-08-17T05:10:45.534Z,23.71
2022-08-17T05:13:50.364Z,23.93
2022-08-17T05:16:55.900Z,24.08
2022-08-17T05:19:59.537Z,23.48
2022-08-17T05:23:07.198Z,23.61
2022-08-17T05:26:20.446Z,23.84
2022-08-17T05:29:35.185Z,23.88
2022-08-17T05:32:40.860Z,24.05
2022-08-17T05:35:47.243Z,24.49
2022-08-17T05:38:50.995Z,24.80
2022-08-17T05:41:54.861Z,25.01
2022-08-17T05:44:59.278Z,24.90
2022-08-17T05:48:13.556Z,25.34
2022-08-17T05:51:59.330Z,25.46
2022-08-17T05:55:15.365Z,25.69
2022-08-17T05:58:35.473Z,25.93
2022-08-17T06:01:49.734Z,25.96
2022-08-17T06:05:30.666Z,26.10
2022-08-17T06:08:45.446Z,26.15
2022-08-17T06:11:58.773Z,26.68
2022-08-17T06:15:19.484Z,27.16
2022-08-17T06:18:26.925Z,27.45
2022-08-17T06:21:37.138Z,27.51
2022-08-17T06:24:45.659Z,27.39
2022-08-17T06:27:53.795Z,27.66
2022-08-17T06:31:02.364Z,27.79
2022-08-17T06:34:12.103Z,27.83
2022-08-17T06:37:39.843Z,28.03
2022-08-17T06:41:00.404Z,28.50
2022-08-17T06:44:42.128Z,28.38
2022-08-17T06:48:14.914Z,28.63
2022-08-17T06:51:26.830Z,28.97
2022-08-17T06:54:40.611Z,29.30
2022-08-17T06:57:48.830Z,30.05
2022-08-17T07:00:59.224Z,30.11
2022-08-17T07:04:11.784Z,30.86
2022-08-17T07:07:35.685Z,31.14
2022-08-17T07:10:46.104Z,31.41
2022-08-17T07:13:58.634Z,31.77
2022-08-17T07:17:05.787Z,32.16
2022-08-17T07:20:45.881Z,32.17
2022-08-17T07:24:03.580Z,32.83
2022-08-17T07:27:13.285Z,33.04
2022-08-17T07:30:22.112Z,33.25
2022-08-17T07:33:28.341Z,33.39
2022-08-17T07:36:33.956Z,33.65
2022-08-17T07:39:37.540Z,33.83
2022-08-17T07:43:21.810Z,34.47
2022-08-17T07:46:47.995Z,34.66
2022-08-17T07:49:52.385Z,34.73
2022-08-17T07:52:56.091Z,34.76
2022-08-17T07:56:00.913Z,35.32
2022-08-17T07:59:15.884Z,34.98
2022-08-17T08:02:33.679Z,34.76
2022-08-17T08:05:51.046Z,35.13
2022-08-17T08:08:57.318Z,35.23
2022-08-17T08:12:02.044Z,35.28
2022-08-17T08:15:18.970Z,35.35
2022-08-17T08:18:39.651Z,35.00
2022-08-17T08:22:00.138Z,34.85
2022-08-17T08:25:21.281Z,34.82
2022-08-17T08:32:03.880Z,33.93
2022-08-17T08:35:13.126Z,33.62
2022-08-17T08:39:16.630Z,33.48
2022-08-17T08:42:27.119Z,32.50
2022-08-17T08:45:39.631Z,32.64
2022-08-17T08:49:12.092Z,32.50
2022-08-17T08:56:06.276Z,32.50
2022-08-17T08:59:22.055Z,32.38
2022-08-17T09:02:41.738Z,32.01
2022-08-17T09:06:32.135Z,31.88
2022-08-17T09:09:42.352Z,31.74
2022-08-17T09:12:55.082Z,31.47
2022-08-17T09:16:04.105Z,31.75
2022-08-17T09:19:15.060Z,31.51
2022-08-17T09:22:36.943Z,31.56
2022-08-17T09:25:50.496Z,31.56
2022-08-17T09:29:01.730Z,31.80
2022-08-17T09:32:18.434Z,31.84
2022-08-17T09:35:36.701Z,32.03
2022-08-17T09:38:54.070Z,32.12
2022-08-17T09:42:07.511Z,32.07
2022-08-17T09:45:24.484Z,32.03
2022-08-17T09:48:34.612Z,31.98
2022-08-17T09:51:42.703Z,32.01
2022-08-17T09:54:50.909Z,31.86
2022-08-17T09:58:06.301Z,31.93
2022-08-17T10:01:23.512Z,31.90
2022-08-17T10:04:40.942Z,31.69
2022-08-17T10:07:56.043Z,31.91
2022-08-17T10:11:16.232Z,31.98
2022-08-17T10:14:36.703Z,31.91
2022-08-17T10:18:04.022Z,31.88
2022-08-17T10:21:28.169Z,31.69
2022-08-17T10:25:02.145Z,31.69
2022-08-17T10:28:28.727Z,31.60
2022-08-17T10:31:39.771Z,31.80
2022-08-17T10:35:11.798Z,31.76
2022-08-17T10:38:34.255Z,31.68
2022-08-17T10:41:46.778Z,31.78
2022-08-17T10:44:57.047Z,31.57
2022-08-17T10:48:06.180Z,31.25
2022-08-17T10:51:12.829Z,31.35
2022-08-17T10:54:41.777Z,31.42
2022-08-17T10:57:48.070Z,31.55
2022-08-17T11:01:00.507Z,31.59
2022-08-17T11:04:28.738Z,31.68
2022-08-17T11:07:50.418Z,31.74
2022-08-17T11:11:15.775Z,31.74
2022-08-17T11:14:39.918Z,31.84
2022-08-17T11:18:22.476Z,31.85
2022-08-17T11:21:48.061Z,31.88
2022-08-17T11:24:54.737Z,32.01
2022-08-17T11:28:08.853Z,31.59
2022-08-17T11:31:39.102Z,31.55
2022-08-17T11:34:45.052Z,31.58
2022-08-17T11:38:02.944Z,31.60
2022-08-17T11:41:21.559Z,31.60
2022-08-17T11:44:40.506Z,31.29
2022-08-17T11:48:27.311Z,31.63
2022-08-17T11:52:09.307Z,31.75
2022-08-17T11:55:56.156Z,31.95
2022-08-17T11:59:02.308Z,32.09
2022-08-17T12:02:32.735Z,32.18
2022-08-17T12:05:37.323Z,32.29
2022-08-17T12:08:43.510Z,32.35
2022-08-17T12:12:12.781Z,32.35
2022-08-17T12:15:28.612Z,32.48
2022-08-17T12:18:38.369Z,32.47
2022-08-17T12:21:50.617Z,32.27
2022-08-17T12:25:03.316Z,32.30
2022-08-17T12:28:22.417Z,32.37
2022-08-17T12:31:30.757Z,32.40
2022-08-17T12:34:39.953Z,32.43
2022-08-17T12:37:51.449Z,32.55
2022-08-17T12:41:27.435Z,32.67
2022-08-17T12:44:50.082Z,32.57
2022-08-17T12:48:11.802Z,32.36
2022-08-17T12:51:15.528Z,32.27
2022-08-17T12:54:27.684Z,32.30
2022-08-17T12:57:41.270Z,32.46
2022-08-17T13:00:51.005Z,32.52
2022-08-17T13:03:59.831Z,32.55
2022-08-17T13:07:03.797Z,32.38
2022-08-17T13:10:07.931Z,32.45
2022-08-17T13:13:21.400Z,32.53
2022-08-17T13:16:26.704Z,32.66
2022-08-17T13:19:40.457Z,32.77
2022-08-17T13:22:45.193Z,32.78
2022-08-17T13:25:55.589Z,32.72
2022-08-17T13:29:02.585Z,32.89
2022-08-17T13:32:20.170Z,32.91
2022-08-17T13:35:50.290Z,32.99
2022-08-17T13:39:11.695Z,32.97
2022-08-17T13:42:34.222Z,32.55
2022-08-17T13:46:10.944Z,32.84
2022-08-17T13:49:15.029Z,32.87
2022-08-17T13:55:55.351Z,33.03
2022-08-17T13:59:02.826Z,32.98
2022-08-17T14:02:07.673Z,32.94
2022-08-17T14:05:11.826Z,32.84
2022-08-17T14:08:19.280Z,32.69
2022-08-17T14:11:25.089Z,32.20
2022-08-17T14:14:29.330Z,32.17
2022-08-17T14:17:38.115Z,31.90
2022-08-17T14:20:46.275Z,32.11
2022-08-17T14:23:54.506Z,32.23
2022-08-17T14:27:02.375Z,32.27
2022-08-17T14:30:08.249Z,32.34
2022-08-17T14:33:12.693Z,32.40
2022-08-17T14:36:17.188Z,32.41
2022-08-17T14:39:22.815Z,32.39
2022-08-17T14:42:32.856Z,32.31
2022-08-17T14:45:37.960Z,32.35
2022-08-17T14:48:41.862Z,32.30
2022-08-17T14:51:45.508Z,32.27
2022-08-17T14:54:52.433Z,32.24
2022-08-17T14:57:58.521Z,32.23
2022-08-17T15:01:02.405Z,32.33
2022-08-17T15:04:07.629Z,32.40
2022-08-17T15:07:11.590Z,32.35
2022-08-17T15:10:17.434Z,32.39
2022-08-17T15:13:29.798Z,32.36
2022-08-17T15:16:38.538Z,32.41
2022-08-17T15:19:47.278Z,32.25
2022-08-17T15:22:55.419Z,32.21
2022-08-17T15:26:01.448Z,32.24
2022-08-17T15:29:07.774Z,32.20
2022-08-17T15:32:28.347Z,31.92
2022-08-17T15:35:35.514Z,31.93
2022-08-17T15:38:40.334Z,32.08
2022-08-17T15:41:43.899Z,32.05
2022-08-17T15:44:50.792Z,32.11
2022-08-17T15:47:55.644Z,32.05
2022-08-17T15:51:02.729Z,32.01
2022-08-17T15:54:19.341Z,32.04
2022-08-17T15:57:27.699Z,31.98
2022-08-17T16:00:44.115Z,31.81
2022-08-17T16:04:04.779Z,31.89
2022-08-17T16:07:11.168Z,31.83
2022-08-17T16:10:19.020Z,31.84
2022-08-17T16:13:24.134Z,31.77
2022-08-17T16:16:31.429Z,31.76
2022-08-17T16:19:35.478Z,31.76
2022-08-17T16:22:42.273Z,31.68
2022-08-17T16:25:52.848Z,31.54
2022-08-17T16:28:59.026Z,31.64
2022-08-17T16:32:15.631Z,31.61
2022-08-17T16:35:22.121Z,31.61
2022-08-17T16:38:25.658Z,31.62
2022-08-17T16:41:45.228Z,31.59
2022-08-17T16:44:48.979Z,31.57
2022-08-17T16:47:55.210Z,31.54
2022-08-17T16:51:03.843Z,31.46
2022-08-17T16:54:09.448Z,31.47
2022-08-17T16:57:14.170Z,31.41
2022-08-17T17:00:21.176Z,31.35
2022-08-17T17:03:29.392Z,31.27
2022-08-17T17:06:45.138Z,31.24
2022-08-17T17:09:52.835Z,31.19
2022-08-17T17:13:02.041Z,31.05
2022-08-17T17:16:19.102Z,30.91
2022-08-17T17:19:41.442Z,30.81
2022-08-17T17:22:53.488Z,30.69
2022-08-17T17:26:06.281Z,30.53
2022-08-17T17:29:21.489Z,30.40
2022-08-17T17:32:46.019Z,30.33
2022-08-17T17:36:00.324Z,30.03
2022-08-17T17:39:11.146Z,29.84
2022-08-17T17:42:20.463Z,29.64
2022-08-17T17:45:27.478Z,29.53
2022-08-17T17:48:31.742Z,29.50
2022-08-17T17:52:06.348Z,29.49
2022-08-17T17:59:18.906Z,29.23
2022-08-17T18:02:52.708Z,28.84
2022-08-17T18:06:21.247Z,28.85
2022-08-17T18:09:50.958Z,28.58
2022-08-17T18:13:02.706Z,28.55
2022-08-17T18:16:09.663Z,28.53
2022-08-17T18:19:15.889Z,28.40
2022-08-17T18:22:22.266Z,28.37
2022-08-17T18:25:44.856Z,28.15
2022-08-17T18:28:55.468Z,27.73
2022-08-17T18:32:24.074Z,27.70
2022-08-17T18:35:37.439Z,27.69
2022-08-17T18:38:45.735Z,27.39
2022-08-17T18:41:57.256Z,27.46
2022-08-17T18:45:04.129Z,27.40
2022-08-17T18:48:28.265Z,27.14
2022-08-17T18:51:41.397Z,27.21
2022-08-17T18:55:04.158Z,26.84
2022-08-17T18:58:22.675Z,26.77
2022-08-17T19:01:42.000Z,26.86
2022-08-17T19:05:05.838Z,26.84
2022-08-17T19:08:21.718Z,26.40
2022-08-17T19:11:33.337Z,26.32
2022-08-17T19:14:38.892Z,26.40
2022-08-17T19:17:48.859Z,26.40
2022-08-17T19:21:03.498Z,26.55
2022-08-17T19:24:19.605Z,26.57
2022-08-17T19:27:43.689Z,26.25
2022-08-17T19:30:57.052Z,26.00
2022-08-17T19:34:03.170Z,25.93
2022-08-17T19:37:17.276Z,25.91
2022-08-17T19:40:51.852Z,25.95
2022-08-17T19:45:00.665Z,25.85
2022-08-17T19:48:18.628Z,25.86
2022-08-17T19:51:34.124Z,25.63
2022-08-17T19:54:47.509Z,25.36
2022-08-17T19:58:01.884Z,25.58
2022-08-17T20:01:08.674Z,25.72
2022-08-17T20:04:32.340Z,25.42
2022-08-17T20:07:46.444Z,25.08
2022-08-17T20:10:56.649Z,25.35
2022-08-17T20:14:05.979Z,25.37
2022-08-17T20:17:14.661Z,25.11
2022-08-17T20:20:29.856Z,25.14
2022-08-17T20:23:48.406Z,25.07
2022-08-17T20:26:58.349Z,25.11
2022-08-17T20:30:10.836Z,24.92
2022-08-17T20:33:31.189Z,25.12
2022-08-17T20:37:02.183Z,25.17
2022-08-17T20:40:27.062Z,24.60
2022-08-17T20:44:04.240Z,24.80
2022-08-17T20:47:14.725Z,24.78
2022-08-17T20:50:32.625Z,24.57
2022-08-17T20:54:14.831Z,24.43
2022-08-17T20:58:02.187Z,24.33
2022-08-17T21:01:14.552Z,24.27
2022-08-17T21:04:47.316Z,24.52
2022-08-17T21:07:58.149Z,24.26
2022-08-17T21:12:02.945Z,24.16
2022-08-17T21:15:04.931Z,24.03
2022-08-17T21:18:15.959Z,24.07
2022-08-17T21:21:29.795Z,24.10
2022-08-17T21:24:44.757Z,24.16
2022-08-17T21:28:07.569Z,23.82
2022-08-17T21:31:34.303Z,23.82
2022-08-17T21:34:39.826Z,24.14
2022-08-17T21:37:45.419Z,23.62
2022-08-17T21:40:51.969Z,23.88
2022-08-17T21:44:05.811Z,23.90
2022-08-17T21:47:24.679Z,23.90
2022-08-17T21:50:31.641Z,23.76
2022-08-17T21:53:44.430Z,23.81
2022-08-17T21:56:50.921Z,23.92
2022-08-17T21:59:57.948Z,23.63
2022-08-17T22:03:09.589Z,23.23
2022-08-17T22:06:25.509Z,23.18
2022-08-17T22:09:32.788Z,23.34
2022-08-17T22:12:36.571Z,23.53
2022-08-17T22:15:43.965Z,23.42
2022-08-17T22:18:53.729Z,22.75
2022-08-17T22:22:04.628Z,23.14
2022-08-17T22:25:21.076Z,23.36
2022-08-17T22:28:40.053Z,23.53
2022-08-17T22:31:56.594Z,23.34
2022-08-17T22:35:31.045Z,23.47
2022-08-17T22:38:37.745Z,23.00
2022-08-17T22:41:52.976Z,23.05
2022-08-17T22:44:56.849Z,23.06
2022-08-17T22:48:03.318Z,22.90
2022-08-17T22:51:13.763Z,23.08
2022-08-17T22:54:37.497Z,22.81
2022-08-17T22:58:05.323Z,22.84
2022-08-17T23:01:28.231Z,22.88
2022-08-17T23:04:35.825Z,22.78
2022-08-17T23:07:42.513Z,22.67
2022-08-17T23:10:50.485Z,22.47
2022-08-17T23:14:29.900Z,22.62
2022-08-17T23:20:53.300Z,22.38
2022-08-17T23:23:58.454Z,22.35
2022-08-17T23:27:07.539Z,22.24
2022-08-17T23:30:14.131Z,22.41
2022-08-17T23:33:27.663Z,22.44
2022-08-17T23:36:31.733Z,22.40
2022-08-17T23:39:37.306Z,22.56
2022-08-17T23:42:46.284Z,22.45
2022-08-17T23:45:51.083Z,22.28
2022-08-17T23:48:57.010Z,22.52
2022-08-17T23:52:03.035Z,22.51
2022-08-17T23:55:08.896Z,22.32
2022-08-17T23:58:12.713Z,22.45
